»·PEaware :: N713AG KSAN-KPSP

N713AG :: KSAN-KPSP

FLIGHT INFORMATION

Flight Status: Arrived
Operator: Privately registered:
United States
More flights under this callsign
Pilot: Sanjiv S. (4490)
Aircraft: SOCATA TBM-900
(TBM9)
More flights by this aircraft type
Origin: KSAN San Diego Intl-Lindbergh
United States
Destination: KPSP Palm Springs Intl
United States
More flights between these airports :: More routes between these airports
Route: +JLI V208 TRM
File this flight plan on PilotEdge
Remarks: VR
Altitude:
(Current/Filed)
15,000ft
Speed:
(Current/Filed)
250kts
Departed: 20-Nov-18 09:15 AM
Arrived: 20-Nov-18 09:49 AM
Distance/Time
Traveled:
74nm/0:33
Distance/Time
To Go:
Arrived

Flight Plot

Page will automatically refresh every two minutes.


Map Options




Map Legend


Flown Route
Filed Route
Departure Airport
Arrival Airport
Navaid (VOR, NDB)
Fix

Horizontal Profiles

Position Reports

Time Latitude Longitude Heading Altitude Ground
Speed
20-Nov-18 08:45 32.732380 -117.177704 192 18ft 0kts
20-Nov-18 08:46 32.732380 -117.177704 192 18ft 0kts
20-Nov-18 08:47 32.732510 -117.177670 192 18ft 0kts
20-Nov-18 08:48 32.732510 -117.177670 192 18ft 0kts
20-Nov-18 08:49 32.732510 -117.177670 192 18ft 0kts
20-Nov-18 08:50 32.732510 -117.177670 192 18ft 0kts
20-Nov-18 08:51 32.732510 -117.177670 192 18ft 0kts
20-Nov-18 08:52 32.732510 -117.177670 192 18ft 0kts
20-Nov-18 08:53 32.732510 -117.177670 192 18ft 0kts
20-Nov-18 08:54 32.732510 -117.177670 192 18ft 0kts
20-Nov-18 08:55 32.732510 -117.177670 192 18ft 0kts
20-Nov-18 08:56 32.732510 -117.177670 192 18ft 0kts
20-Nov-18 08:57 32.732510 -117.177670 192 18ft 0kts
20-Nov-18 08:58 32.732510 -117.177670 192 18ft 0kts
20-Nov-18 08:59 32.732510 -117.177670 192 18ft 0kts
20-Nov-18 09:00 32.732510 -117.177670 192 18ft 0kts
20-Nov-18 09:01 32.732510 -117.177670 192 18ft 0kts
20-Nov-18 09:02 32.732510 -117.177670 192 18ft 0kts
20-Nov-18 09:03 32.732510 -117.177670 192 18ft 0kts
20-Nov-18 09:04 32.732510 -117.177670 192 18ft 0kts
20-Nov-18 09:05 32.732510 -117.177670 192 18ft 0kts
20-Nov-18 09:06 32.732510 -117.177670 192 18ft 0kts
20-Nov-18 09:07 32.732510 -117.177670 192 18ft 0kts
20-Nov-18 09:08 32.732510 -117.177670 192 18ft 0kts
20-Nov-18 09:09 32.732510 -117.177670 192 18ft 0kts
20-Nov-18 09:10 32.732510 -117.177670 192 18ft 0kts
20-Nov-18 09:11 32.732509 -117.177670 192 18ft 0kts
20-Nov-18 09:12 32.732510 -117.177670 192 18ft 0kts
20-Nov-18 09:13 32.732269 -117.177720 187 18ft 4kts
20-Nov-18 09:14 32.731312 -117.176449 107 18ft 8kts
20-Nov-18 09:15 32.730902 -117.175485 135 18ft 0kts
20-Nov-18 09:16 32.730902 -117.175485 135 18ft 0kts
20-Nov-18 09:17 32.730176 -117.175707 284 18ft 0kts
20-Nov-18 09:18 32.735599 -117.196579 290 417ft 130kts
20-Nov-18 09:19 32.755760 -117.228782 311 2354ft 136kts
20-Nov-18 09:20 32.781274 -117.253661 321 3703ft 156kts
20-Nov-18 09:21 32.820327 -117.289189 344 5483ft 168kts
20-Nov-18 09:22 32.862274 -117.282052 10 6965ft 180kts
20-Nov-18 09:23 32.905521 -117.265284 58 8420ft 196kts
20-Nov-18 09:24 32.923602 -117.217915 67 9913ft 190kts
20-Nov-18 09:25 32.945823 -117.154213 67 12137ft 176kts
20-Nov-18 09:26 32.951026 -117.139178 67 12686ft 172kts
20-Nov-18 09:27 32.968584 -117.088329 67 14495ft 180kts
20-Nov-18 09:28 32.993843 -117.014953 67 15024ft 241kts
20-Nov-18 09:29 33.015300 -116.952522 67 15007ft 262kts
20-Nov-18 09:30 33.041789 -116.875294 67 15002ft 269kts
20-Nov-18 09:31 33.068559 -116.797046 67 15000ft 271kts
20-Nov-18 09:32 33.096531 -116.715080 67 15000ft 272kts
20-Nov-18 09:33 33.117891 -116.652352 67 15000ft 272kts
20-Nov-18 09:34 33.149696 -116.578033 36 14997ft 271kts
20-Nov-18 09:35 33.205538 -116.529472 35 15000ft 272kts
20-Nov-18 09:36 33.262829 -116.479678 35 14975ft 273kts
20-Nov-18 09:37 33.306788 -116.441416 35 14289ft 275kts
20-Nov-18 09:38 33.354296 -116.400006 35 13426ft 276kts
20-Nov-18 09:39 33.413222 -116.348556 36 11939ft 281kts
20-Nov-18 09:40 33.465822 -116.302559 36 10993ft 268kts
20-Nov-18 09:41 33.516837 -116.257892 35 10985ft 228kts
20-Nov-18 09:42 33.574422 -116.248787 3 9790ft 226kts
20-Nov-18 09:43 33.631393 -116.244800 3 8978ft 195kts
20-Nov-18 09:44 33.666399 -116.279248 300 8086ft 185kts
20-Nov-18 09:45 33.683553 -116.330811 292 6258ft 190kts
20-Nov-18 09:46 33.710415 -116.372847 305 3931ft 166kts
20-Nov-18 09:47 33.731614 -116.406525 310 2666ft 130kts
20-Nov-18 09:48 33.752714 -116.437383 314 2459ft 127kts
20-Nov-18 09:49 33.777062 -116.461574 325 2015ft 112kts
20-Nov-18 09:50 33.797777 -116.479340 323 1254ft 100kts
20-Nov-18 09:51 33.816131 -116.495675 324 620ft 93kts
20-Nov-18 09:52 33.827775 -116.505974 320 480ft 3kts
20-Nov-18 09:53 33.825884 -116.507022 210 480ft 12kts
20-Nov-18 09:54 33.825278 -116.509249 46 480ft 0kts
20-Nov-18 09:55 33.825278 -116.509249 47 480ft 0kts

Navigation Log

Ident Type
Flight plan parsing failed, navigation log unavailable